Time;durP1;ratioP1;P1;durP2;ratioP2;P2;SDS_P1;SDS_P2;PMS_P1;PMS_P2;Temp;Humidity;BMP_temperature;BMP_pressure;BME280_temperature;BME280_humidity;BME280_pressure;Samples;Min_cycle;Max_cycle;Signal;HPM_P1;HPM_P2
2022/04/13 00:00:13;;;;;;;0.30;0.20;;;8.20;92.20;;;;;;5056636;28;20467;-85
2022/04/13 00:02:41;;;;;;;0.30;0.10;;;8.10;92.40;;;;;;5065853;28;20476;-85
2022/04/13 00:05:11;;;;;;;0.30;0.17;;;8.00;92.70;;;;;;5052182;28;20476;-86
2022/04/13 00:07:38;;;;;;;0.30;0.20;;;7.90;92.90;;;;;;5043219;28;20554;-85
2022/04/13 00:10:07;;;;;;;0.53;0.53;;;7.90;93.00;;;;;;5059310;28;20463;-85
2022/04/13 00:12:34;;;;;;;0.40;0.20;;;7.90;93.10;;;;;;5067396;28;20466;-84
2022/04/13 00:15:02;;;;;;;0.40;0.30;;;7.90;93.00;;;;;;5067070;28;21015;-86
2022/04/13 00:17:29;;;;;;;0.30;0.20;;;7.90;93.10;;;;;;5074139;28;20930;-86
2022/04/13 00:19:56;;;;;;;0.30;0.20;;;7.90;92.90;;;;;;5063073;28;21010;-86
2022/04/13 00:22:25;;;;;;;0.30;0.10;;;8.00;92.90;;;;;;5059650;28;20518;-89
2022/04/13 00:24:52;;;;;;;0.47;0.40;;;8.00;93.00;;;;;;5064363;28;20798;-83
2022/04/13 00:27:19;;;;;;;0.30;0.20;;;7.90;93.00;;;;;;5071939;28;20914;-84
2022/04/13 00:29:46;;;;;;;0.30;0.20;;;7.90;93.10;;;;;;5081772;28;20497;-86
2022/04/13 00:32:13;;;;;;;0.30;0.10;;;7.80;93.20;;;;;;5082346;28;20470;-86
2022/04/13 00:34:41;;;;;;;0.30;0.10;;;7.80;93.20;;;;;;5071735;28;20513;-85
2022/04/13 00:37:08;;;;;;;0.50;0.33;;;7.80;93.30;;;;;;5069382;28;20539;-88
2022/04/13 00:39:36;;;;;;;0.30;0.20;;;7.70;93.60;;;;;;5054245;28;20464;-88
2022/04/13 00:42:05;;;;;;;0.30;0.10;;;7.60;93.80;;;;;;5054200;28;20522;-87
2022/04/13 00:44:38;;;;;;;0.30;0.20;;;7.70;93.70;;;;;;5067903;28;20488;-87
2022/04/13 00:47:08;;;;;;;1.07;0.67;;;7.60;93.90;;;;;;5064204;28;20447;-88
2022/04/13 00:49:36;;;;;;;0.30;0.10;;;7.60;93.90;;;;;;5059950;28;20501;-88
2022/04/13 00:52:05;;;;;;;0.30;0.20;;;7.60;93.80;;;;;;5063308;28;20500;-86
2022/04/13 00:54:32;;;;;;;0.30;0.20;;;7.60;94.00;;;;;;5055346;28;20524;-87
2022/04/13 00:57:07;;;;;;;1.33;1.23;;;7.60;93.90;;;;;;5056100;28;20466;-89
2022/04/13 00:59:37;;;;;;;0.30;0.10;;;7.70;93.80;;;;;;5064798;28;20929;-88
2022/04/13 01:02:07;;;;;;;0.47;0.47;;;7.60;94.00;;;;;;5063278;28;20447;-86
2022/04/13 01:04:35;;;;;;;2.30;0.60;;;7.60;94.20;;;;;;5059412;28;20538;-88
2022/04/13 01:07:04;;;;;;;0.30;0.13;;;7.50;94.30;;;;;;5066002;28;20538;-86
2022/04/13 01:09:31;;;;;;;0.30;0.20;;;7.50;94.20;;;;;;5063614;28;20463;-86
2022/04/13 01:12:00;;;;;;;0.40;0.27;;;7.50;94.30;;;;;;5052338;28;21141;-89
2022/04/13 01:14:27;;;;;;;0.30;0.20;;;7.40;94.50;;;;;;5057951;28;20550;-88
2022/04/13 01:16:54;;;;;;;0.30;0.20;;;7.40;94.60;;;;;;5059698;28;21050;-87
2022/04/13 01:19:21;;;;;;;0.30;0.10;;;7.30;94.70;;;;;;5065257;28;20501;-87
2022/04/13 01:21:52;;;;;;;1.37;0.80;;;7.30;94.70;;;;;;5064354;28;20471;-86
2022/04/13 01:24:22;;;;;;;0.70;0.70;;;7.40;94.50;;;;;;5054683;28;20570;-88
2022/04/13 01:26:49;;;;;;;0.40;0.30;;;7.40;94.60;;;;;;5058007;28;20534;-87
2022/04/13 01:29:17;;;;;;;0.80;0.80;;;7.30;94.70;;;;;;5059556;28;20449;-87
2022/04/13 01:31:45;;;;;;;0.30;0.20;;;7.30;94.70;;;;;;5060992;28;20452;-86
2022/04/13 01:34:14;;;;;;;1.07;0.73;;;7.30;94.80;;;;;;5063659;28;20450;-86
2022/04/13 01:36:41;;;;;;;0.30;0.10;;;7.30;94.80;;;;;;5063583;28;20543;-87
2022/04/13 01:39:09;;;;;;;0.30;0.17;;;7.30;94.90;;;;;;5063700;28;20511;-87
2022/04/13 01:41:37;;;;;;;0.30;0.20;;;7.30;95.00;;;;;;5060429;28;20550;-87
2022/04/13 01:44:05;;;;;;;0.30;0.10;;;7.30;95.00;;;;;;5059991;28;21033;-85
2022/04/13 01:46:32;;;;;;;0.50;0.40;;;7.30;95.00;;;;;;5063440;28;20449;-85
2022/04/13 01:48:59;;;;;;;0.30;0.20;;;7.30;95.10;;;;;;5065216;28;20994;-87
2022/04/13 01:51:26;;;;;;;0.30;0.20;;;7.30;95.10;;;;;;5054228;28;20460;-87
2022/04/13 01:53:53;;;;;;;0.30;0.10;;;7.30;95.30;;;;;;5059735;28;20455;-89
2022/04/13 01:56:20;;;;;;;0.30;0.20;;;7.20;95.50;;;;;;5059880;28;20957;-89
2022/04/13 01:58:48;;;;;;;0.30;0.20;;;7.10;95.80;;;;;;5056871;28;20534;-86
2022/04/13 02:01:16;;;;;;;0.30;0.20;;;7.10;96.00;;;;;;5063321;28;20455;-87
2022/04/13 02:03:43;;;;;;;0.40;0.30;;;7.10;95.90;;;;;;5052411;28;20536;-89
2022/04/13 02:06:10;;;;;;;0.30;0.20;;;7.10;95.90;;;;;;5055814;28;20919;-86
2022/04/13 02:08:37;;;;;;;0.30;0.20;;;7.10;96.00;;;;;;5056570;28;20473;-87
2022/04/13 02:11:05;;;;;;;0.83;0.53;;;7.10;96.10;;;;;;5065946;28;21016;-86
2022/04/13 02:13:32;;;;;;;0.50;0.30;;;7.10;96.20;;;;;;5059306;28;20457;-86
2022/04/13 02:16:00;;;;;;;0.30;0.20;;;7.10;96.20;;;;;;5061905;28;20465;-86
2022/04/13 02:18:27;;;;;;;0.40;0.30;;;7.10;96.10;;;;;;5060193;28;20449;-85
2022/04/13 02:20:54;;;;;;;0.30;0.20;;;7.00;96.30;;;;;;5059168;28;20529;-85
2022/04/13 02:23:21;;;;;;;2.73;1.17;;;7.00;96.60;;;;;;5061329;28;20487;-88
2022/04/13 02:25:48;;;;;;;0.30;0.10;;;6.90;97.00;;;;;;5075407;28;20824;-87
2022/04/13 02:28:15;;;;;;;0.30;0.10;;;6.80;97.20;;;;;;5071350;28;20460;-85
2022/04/13 02:30:42;;;;;;;0.40;0.40;;;6.80;97.40;;;;;;5068399;28;20498;-86
2022/04/13 02:33:11;;;;;;;0.40;0.20;;;6.70;97.50;;;;;;5061568;28;20513;-85
2022/04/13 02:35:38;;;;;;;0.30;0.20;;;6.80;97.50;;;;;;5055287;28;20456;-88
2022/04/13 02:38:05;;;;;;;0.30;0.20;;;6.80;97.80;;;;;;5057238;28;20514;-86
2022/04/13 02:40:32;;;;;;;0.30;0.10;;;6.70;98.00;;;;;;5057895;28;20746;-86
2022/04/13 02:42:59;;;;;;;0.30;0.20;;;6.60;98.40;;;;;;5066865;28;20955;-89
2022/04/13 02:45:26;;;;;;;0.30;0.10;;;6.50;98.60;;;;;;5057963;28;20495;-86
2022/04/13 02:47:53;;;;;;;0.30;0.20;;;6.60;98.50;;;;;;5055652;28;20891;-85
2022/04/13 02:50:23;;;;;;;1.47;0.50;;;6.60;98.40;;;;;;5058091;28;21050;-87
2022/04/13 02:52:50;;;;;;;0.60;0.30;;;6.60;98.60;;;;;;5065197;28;20815;-86
2022/04/13 02:55:17;;;;;;;0.50;0.20;;;6.50;98.80;;;;;;5056648;28;20925;-86
2022/04/13 02:57:44;;;;;;;0.30;0.10;;;6.40;99.00;;;;;;5058282;28;20484;-86
2022/04/13 03:00:12;;;;;;;0.30;0.10;;;6.40;99.40;;;;;;5049932;28;20869;-86
2022/04/13 03:02:40;;;;;;;0.30;0.10;;;6.20;99.70;;;;;;5058517;28;20842;-86
2022/04/13 03:05:08;;;;;;;0.30;0.20;;;6.20;99.90;;;;;;5058744;28;20487;-85
2022/04/13 03:07:36;;;;;;;0.60;0.50;;;6.10;99.90;;;;;;5069390;28;20526;-84
2022/04/13 03:10:04;;;;;;;0.30;0.17;;;6.00;99.90;;;;;;5075166;28;20436;-84
2022/04/13 03:12:33;;;;;;;2.73;0.50;;;5.90;99.90;;;;;;5061583;28;20458;-84
2022/04/13 03:15:01;;;;;;;0.30;0.10;;;5.80;99.90;;;;;;5053798;28;20471;-86
2022/04/13 03:17:28;;;;;;;0.30;0.10;;;5.90;99.90;;;;;;5052423;28;20470;-86
2022/04/13 03:19:55;;;;;;;0.40;0.30;;;5.80;99.90;;;;;;5060045;28;20533;-85
2022/04/13 03:22:23;;;;;;;0.30;0.10;;;5.90;99.90;;;;;;5056639;28;20451;-86
2022/04/13 03:24:52;;;;;;;0.30;0.20;;;5.90;99.90;;;;;;5055747;28;20569;-88
2022/04/13 03:27:19;;;;;;;0.40;0.40;;;5.80;99.90;;;;;;5060540;28;20473;-86
2022/04/13 03:29:47;;;;;;;1.43;0.37;;;5.90;99.90;;;;;;5058247;28;20461;-86
2022/04/13 03:32:14;;;;;;;0.40;0.33;;;6.00;99.90;;;;;;5053524;28;20466;-88
2022/04/13 03:34:41;;;;;;;0.30;0.10;;;6.00;99.90;;;;;;5060577;28;20447;-88
2022/04/13 03:37:08;;;;;;;0.30;0.10;;;6.10;99.90;;;;;;5057113;28;20837;-88
2022/04/13 03:39:35;;;;;;;0.30;0.20;;;6.00;99.90;;;;;;5056770;28;20542;-87
2022/04/13 03:42:03;;;;;;;1.00;0.73;;;6.00;99.90;;;;;;5060988;28;20439;-88
2022/04/13 03:44:30;;;;;;;0.30;0.17;;;5.90;99.90;;;;;;5062257;28;20477;-88
2022/04/13 03:46:57;;;;;;;0.30;0.10;;;5.90;99.90;;;;;;5057561;28;20460;-87
2022/04/13 03:49:24;;;;;;;0.30;0.10;;;6.00;99.90;;;;;;5056185;28;20523;-87
2022/04/13 03:51:51;;;;;;;0.30;0.20;;;6.00;99.90;;;;;;5058793;28;20552;-89
2022/04/13 03:54:18;;;;;;;0.70;0.70;;;6.10;99.90;;;;;;5059803;28;20443;-86
2022/04/13 03:56:46;;;;;;;0.30;0.20;;;6.10;99.90;;;;;;5051945;28;20463;-87
2022/04/13 03:59:14;;;;;;;0.30;0.10;;;6.10;99.90;;;;;;5059641;28;20531;-88
2022/04/13 04:01:41;;;;;;;1.17;0.53;;;6.20;99.90;;;;;;5058952;28;20460;-86
2022/04/13 04:04:10;;;;;;;0.30;0.20;;;6.10;99.90;;;;;;5049205;28;20483;-87
2022/04/13 04:06:36;;;;;;;0.30;0.20;;;6.10;99.90;;;;;;5065078;28;20534;-86
2022/04/13 04:09:04;;;;;;;0.97;0.67;;;6.10;99.90;;;;;;5062324;28;20459;-85
2022/04/13 04:11:31;;;;;;;0.40;0.40;;;5.90;99.90;;;;;;5056170;28;20801;-87
2022/04/13 04:13:58;;;;;;;0.30;0.20;;;5.80;99.90;;;;;;5051719;28;21002;-87
2022/04/13 04:16:26;;;;;;;0.40;0.37;;;5.70;99.90;;;;;;5060849;28;20533;-86
2022/04/13 04:18:53;;;;;;;0.30;0.20;;;5.70;99.90;;;;;;5062976;28;20935;-87
2022/04/13 04:21:20;;;;;;;0.83;0.83;;;5.60;99.90;;;;;;5059964;28;20474;-85
2022/04/13 04:23:47;;;;;;;0.30;0.10;;;5.60;99.90;;;;;;5061166;28;20449;-85
2022/04/13 04:26:14;;;;;;;0.30;0.20;;;5.70;99.90;;;;;;5061976;28;20456;-88
2022/04/13 04:28:42;;;;;;;2.63;0.57;;;5.70;99.90;;;;;;5065319;28;20437;-87
2022/04/13 04:31:09;;;;;;;1.27;0.63;;;5.80;99.90;;;;;;5058529;28;20459;-87
2022/04/13 04:33:38;;;;;;;0.30;0.20;;;5.80;99.90;;;;;;5056025;28;20441;-86
2022/04/13 04:36:05;;;;;;;0.93;0.93;;;5.80;99.90;;;;;;5054880;28;20933;-87
2022/04/13 04:38:32;;;;;;;0.40;0.27;;;5.80;99.90;;;;;;5056421;28;20456;-85
2022/04/13 04:41:00;;;;;;;0.30;0.20;;;5.90;99.90;;;;;;5055681;28;20479;-86
2022/04/13 04:43:27;;;;;;;0.30;0.20;;;5.90;99.90;;;;;;5050981;28;20585;-87
2022/04/13 04:45:54;;;;;;;0.80;0.70;;;5.90;99.90;;;;;;5048140;28;20549;-87
2022/04/13 04:48:20;;;;;;;0.30;0.10;;;6.00;99.90;;;;;;5049603;28;20461;-87
2022/04/13 04:50:49;;;;;;;0.30;0.20;;;6.10;99.90;;;;;;5056341;28;20453;-84
2022/04/13 04:53:16;;;;;;;0.30;0.20;;;6.10;99.90;;;;;;5038823;28;20472;-87
2022/04/13 04:55:44;;;;;;;0.30;0.10;;;6.20;99.90;;;;;;5048300;28;20496;-85
2022/04/13 04:58:11;;;;;;;0.50;0.43;;;6.20;99.90;;;;;;5049494;28;20452;-84
2022/04/13 05:00:39;;;;;;;0.30;0.20;;;6.20;99.90;;;;;;5055865;28;20851;-85
2022/04/13 05:03:08;;;;;;;0.30;0.20;;;6.30;99.90;;;;;;5068874;28;20938;-85
2022/04/13 05:05:36;;;;;;;0.30;0.20;;;6.30;99.90;;;;;;5060254;28;20627;-84
2022/04/13 05:08:06;;;;;;;0.40;0.33;;;6.40;99.90;;;;;;5047250;28;20468;-85
2022/04/13 05:10:33;;;;;;;0.30;0.10;;;6.40;99.90;;;;;;5057850;28;20460;-84
2022/04/13 05:13:02;;;;;;;1.63;1.53;;;6.40;99.90;;;;;;5043402;28;20467;-84
2022/04/13 05:15:29;;;;;;;0.57;0.40;;;6.50;99.90;;;;;;5041600;28;20841;-87
2022/04/13 05:17:56;;;;;;;0.47;0.30;;;6.60;99.90;;;;;;5052501;28;20469;-85
2022/04/13 05:20:23;;;;;;;0.30;0.20;;;6.70;99.90;;;;;;5041942;28;20537;-85
2022/04/13 05:22:50;;;;;;;0.30;0.20;;;6.80;99.90;;;;;;5042570;28;20539;-87
2022/04/13 05:25:18;;;;;;;0.40;0.20;;;6.80;99.90;;;;;;5046810;28;20543;-85
2022/04/13 05:27:46;;;;;;;0.30;0.10;;;6.90;99.90;;;;;;5048150;28;20909;-85
2022/04/13 05:30:14;;;;;;;0.40;0.40;;;6.90;99.90;;;;;;5049846;28;20456;-88
2022/04/13 05:32:49;;;;;;;0.37;0.17;;;6.90;99.90;;;;;;5047286;28;20568;-86
2022/04/13 05:35:16;;;;;;;0.40;0.20;;;7.10;99.90;;;;;;5045941;28;20862;-85
2022/04/13 05:37:43;;;;;;;0.30;0.20;;;7.10;99.90;;;;;;5031302;28;20468;-84
2022/04/13 05:40:11;;;;;;;0.30;0.10;;;7.10;99.90;;;;;;5058237;28;20548;-83
2022/04/13 05:42:40;;;;;;;0.30;0.20;;;7.20;99.90;;;;;;5065946;28;20469;-83
2022/04/13 05:45:08;;;;;;;0.90;0.90;;;7.20;99.90;;;;;;5058508;28;20873;-84
2022/04/13 05:47:35;;;;;;;0.30;0.10;;;7.30;99.90;;;;;;5050626;28;20465;-85
2022/04/13 05:50:02;;;;;;;0.30;0.20;;;7.40;99.90;;;;;;5049771;28;20473;-83
2022/04/13 05:52:30;;;;;;;1.50;1.40;;;7.50;99.80;;;;;;5047234;28;20463;-84
2022/04/13 05:54:57;;;;;;;0.30;0.20;;;7.60;99.50;;;;;;5059384;28;20882;-84
2022/04/13 05:57:24;;;;;;;0.40;0.30;;;7.70;99.50;;;;;;5050951;28;20514;-84
2022/04/13 05:59:53;;;;;;;1.40;0.30;;;7.80;99.20;;;;;;5050120;28;20460;-83
2022/04/13 06:02:20;;;;;;;0.43;0.40;;;8.00;99.30;;;;;;5052177;28;20482;-85
2022/04/13 06:04:47;;;;;;;0.30;0.20;;;8.00;99.10;;;;;;5050224;28;20959;-85
2022/04/13 06:07:14;;;;;;;3.40;0.77;;;8.10;99.20;;;;;;5070538;28;20435;-86
2022/04/13 06:09:41;;;;;;;0.30;0.10;;;8.20;99.30;;;;;;5051281;28;20468;-86
2022/04/13 06:12:09;;;;;;;0.30;0.20;;;8.20;98.80;;;;;;5041301;28;20935;-85
2022/04/13 06:14:36;;;;;;;0.40;0.20;;;8.40;98.50;;;;;;5039665;28;20465;-84
2022/04/13 06:17:05;;;;;;;0.50;0.50;;;8.50;98.10;;;;;;5049984;28;20468;-87
2022/04/13 06:19:32;;;;;;;6.63;1.23;;;8.60;98.50;;;;;;5041871;28;20992;-85
2022/04/13 06:21:59;;;;;;;0.90;0.77;;;8.70;98.00;;;;;;5051112;28;20998;-85
2022/04/13 06:24:26;;;;;;;0.40;0.30;;;8.80;98.00;;;;;;5042736;28;20973;-84
2022/04/13 06:26:53;;;;;;;0.30;0.20;;;8.80;97.60;;;;;;5044769;28;20968;-85
2022/04/13 06:29:20;;;;;;;1.63;0.47;;;9.00;97.60;;;;;;5049764;28;20465;-84
2022/04/13 06:31:47;;;;;;;0.40;0.20;;;9.20;97.30;;;;;;5049658;28;20538;-87
2022/04/13 06:34:16;;;;;;;2.10;0.40;;;9.50;96.90;;;;;;5047891;28;20545;-84
2022/04/13 06:36:43;;;;;;;0.50;0.50;;;9.50;96.00;;;;;;5043441;28;21613;-85
2022/04/13 06:39:10;;;;;;;0.30;0.20;;;9.70;96.00;;;;;;5048475;28;20465;-87
2022/04/13 06:41:37;;;;;;;0.30;0.20;;;9.90;95.30;;;;;;5038847;28;20477;-88
2022/04/13 06:44:05;;;;;;;1.07;0.97;;;10.00;94.40;;;;;;5046308;28;20468;-83
2022/04/13 06:46:36;;;;;;;0.40;0.30;;;10.10;94.20;;;;;;5052607;28;20496;-86
2022/04/13 06:49:03;;;;;;;0.33;0.17;;;10.20;93.70;;;;;;5049795;28;20567;-84
2022/04/13 06:51:33;;;;;;;0.30;0.10;;;10.20;93.60;;;;;;5058543;28;20842;-84
2022/04/13 06:54:00;;;;;;;0.50;0.50;;;10.30;93.40;;;;;;5048578;28;21012;-82
2022/04/13 06:56:27;;;;;;;0.40;0.40;;;10.50;93.00;;;;;;5059428;28;20473;-83
2022/04/13 06:58:54;;;;;;;0.30;0.20;;;10.60;92.50;;;;;;5056933;28;20460;-83
2022/04/13 07:01:20;;;;;;;0.60;0.40;;;10.80;92.60;;;;;;5058640;28;20521;-85
2022/04/13 07:03:47;;;;;;;0.30;0.20;;;10.80;91.80;;;;;;5056688;28;20496;-84
2022/04/13 07:06:14;;;;;;;0.30;0.20;;;10.90;92.60;;;;;;5065047;28;20483;-84
2022/04/13 07:08:43;;;;;;;0.40;0.23;;;11.00;92.10;;;;;;5053919;28;21004;-87
2022/04/13 07:11:10;;;;;;;0.33;0.20;;;11.30;92.40;;;;;;5059066;28;20882;-83
2022/04/13 07:13:37;;;;;;;2.23;0.30;;;11.40;92.00;;;;;;5050020;28;20520;-83
2022/04/13 07:16:04;;;;;;;0.40;0.20;;;11.20;91.80;;;;;;5050106;28;20471;-83
2022/04/13 07:18:32;;;;;;;3.40;1.80;;;11.10;91.90;;;;;;5055931;28;20463;-86
2022/04/13 07:20:59;;;;;;;0.40;0.30;;;11.30;92.20;;;;;;5052409;28;20487;-84
2022/04/13 07:23:26;;;;;;;0.40;0.30;;;11.40;92.40;;;;;;5059491;28;20556;-84
2022/04/13 07:25:55;;;;;;;1.80;0.80;;;11.30;91.50;;;;;;5062568;28;20486;-84
2022/04/13 07:28:22;;;;;;;1.70;1.10;;;11.40;92.00;;;;;;5054746;28;20451;-84
2022/04/13 07:30:49;;;;;;;0.40;0.40;;;11.50;92.20;;;;;;5054185;28;20589;-88
2022/04/13 07:33:16;;;;;;;0.93;0.60;;;11.60;91.30;;;;;;5056842;28;20459;-85
2022/04/13 07:35:43;;;;;;;0.47;0.40;;;11.70;91.20;;;;;;5056140;28;20530;-85
2022/04/13 07:38:10;;;;;;;1.27;0.30;;;11.80;91.10;;;;;;5059758;28;20460;-84
2022/04/13 07:40:37;;;;;;;1.00;0.40;;;11.90;91.20;;;;;;5057998;28;20529;-84
2022/04/13 07:43:07;;;;;;;0.50;0.40;;;11.90;90.60;;;;;;5062699;28;20452;-86
2022/04/13 07:45:35;;;;;;;0.43;0.30;;;11.90;91.70;;;;;;5050017;28;20535;-84
2022/04/13 07:48:02;;;;;;;0.40;0.30;;;12.10;91.70;;;;;;5056403;28;20457;-84
2022/04/13 07:50:29;;;;;;;0.40;0.37;;;12.40;92.10;;;;;;5061096;28;20947;-86
2022/04/13 07:52:55;;;;;;;0.30;0.20;;;12.30;90.40;;;;;;5058539;28;20928;-83
2022/04/13 07:55:22;;;;;;;0.63;0.47;;;12.60;90.50;;;;;;5057285;28;20807;-85
2022/04/13 07:57:49;;;;;;;0.43;0.40;;;12.70;91.50;;;;;;5056396;28;20941;-84
2022/04/13 08:00:18;;;;;;;1.83;1.30;;;12.90;90.80;;;;;;5041715;28;20954;-86
2022/04/13 08:02:45;;;;;;;0.40;0.30;;;13.20;90.40;;;;;;5048975;28;20465;-83
2022/04/13 08:05:13;;;;;;;0.40;0.37;;;13.00;88.60;;;;;;5050492;28;20484;-86
2022/04/13 08:07:40;;;;;;;0.67;0.30;;;13.00;90.30;;;;;;5059355;28;20459;-86
2022/04/13 08:10:09;;;;;;;0.30;0.30;;;13.10;90.70;;;;;;5054392;28;20523;-85
2022/04/13 08:12:36;;;;;;;0.40;0.30;;;13.20;90.10;;;;;;5042815;28;20478;-85
2022/04/13 08:15:05;;;;;;;0.50;0.50;;;13.40;87.40;;;;;;5055905;28;20453;-83
2022/04/13 08:17:33;;;;;;;2.00;0.47;;;13.70;87.80;;;;;;5056697;28;20535;-84
2022/04/13 08:20:00;;;;;;;0.40;0.40;;;13.80;87.20;;;;;;5060316;28;20527;-84
2022/04/13 08:22:28;;;;;;;0.40;0.30;;;13.70;86.90;;;;;;5065440;28;20499;-83
2022/04/13 08:24:56;;;;;;;0.30;0.20;;;13.80;86.90;;;;;;5061950;28;20458;-85
2022/04/13 08:27:22;;;;;;;0.90;0.40;;;13.70;86.40;;;;;;5056826;28;20468;-84
2022/04/13 08:29:49;;;;;;;0.40;0.40;;;13.70;88.10;;;;;;5047286;28;20467;-85
2022/04/13 08:32:17;;;;;;;0.30;0.20;;;13.80;88.20;;;;;;5052251;28;20525;-84
2022/04/13 08:34:48;;;;;;;0.40;0.30;;;14.10;87.80;;;;;;5056899;28;20549;-86
2022/04/13 08:37:15;;;;;;;0.30;0.20;;;14.40;86.90;;;;;;5053046;28;20474;-85
2022/04/13 08:39:42;;;;;;;0.40;0.30;;;14.10;83.90;;;;;;5054255;28;20495;-88
2022/04/13 08:42:13;;;;;;;0.40;0.20;;;14.00;88.10;;;;;;5060674;28;20467;-86
2022/04/13 08:44:51;;;;;;;0.40;0.23;;;14.20;87.00;;;;;;5057226;28;20472;-85
2022/04/13 08:47:19;;;;;;;0.40;0.23;;;14.30;85.50;;;;;;5049710;28;20488;-88
2022/04/13 08:49:52;;;;;;;0.40;0.40;;;14.40;87.70;;;;;;5061884;28;20462;-85
2022/04/13 08:52:22;;;;;;;0.40;0.40;;;14.70;86.40;;;;;;5068211;28;20460;-86
2022/04/13 08:55:00;;;;;;;0.33;0.30;;;15.00;86.60;;;;;;5056598;28;20953;-86
2022/04/13 08:57:30;;;;;;;0.37;0.30;;;15.00;87.60;;;;;;5061868;28;20454;-85
2022/04/13 09:00:09;;;;;;;0.40;0.30;;;15.20;86.00;;;;;;5066405;28;20458;-85
2022/04/13 09:02:57;;;;;;;0.40;0.30;;;15.10;86.20;;;;;;5049286;28;20461;-86
2022/04/13 09:05:28;;;;;;;0.30;0.20;;;15.10;86.70;;;;;;5059368;28;20491;-85
2022/04/13 09:08:05;;;;;;;0.40;0.30;;;15.20;86.50;;;;;;5049461;28;20547;-86
2022/04/13 09:10:33;;;;;;;0.80;0.73;;;15.00;82.20;;;;;;5053075;28;20467;-86
2022/04/13 09:13:00;;;;;;;0.43;0.43;;;14.70;83.00;;;;;;5063591;28;20467;-85
2022/04/13 09:15:28;;;;;;;0.30;0.20;;;14.80;85.50;;;;;;5057977;28;20512;-85
2022/04/13 09:17:55;;;;;;;0.40;0.30;;;15.00;85.80;;;;;;5053220;28;20510;-83
2022/04/13 09:20:23;;;;;;;1.47;0.83;;;15.40;83.60;;;;;;5063893;28;20950;-87
2022/04/13 09:22:54;;;;;;;0.40;0.30;;;15.50;85.70;;;;;;5052114;28;20502;-85
2022/04/13 09:25:22;;;;;;;0.50;0.30;;;15.50;83.30;;;;;;5059069;28;20455;-87
2022/04/13 09:27:49;;;;;;;0.90;0.60;;;15.70;84.90;;;;;;5059487;28;20456;-87
2022/04/13 09:30:17;;;;;;;0.57;0.57;;;15.80;81.90;;;;;;5057485;28;20973;-86
2022/04/13 09:32:45;;;;;;;0.40;0.40;;;15.70;84.10;;;;;;5068071;28;20450;-84
2022/04/13 09:35:12;;;;;;;0.70;0.70;;;15.70;84.40;;;;;;5048788;28;20517;-86
2022/04/13 09:37:40;;;;;;;0.70;0.70;;;15.70;86.00;;;;;;5056488;28;21268;-84
2022/04/13 09:40:10;;;;;;;0.60;0.60;;;15.90;85.50;;;;;;5061653;28;20471;-86
2022/04/13 09:42:37;;;;;;;0.40;0.30;;;16.00;85.10;;;;;;5067964;28;20449;-83
2022/04/13 09:45:05;;;;;;;0.70;0.70;;;15.80;84.50;;;;;;5051879;28;20867;-84
2022/04/13 09:47:34;;;;;;;0.40;0.30;;;15.60;84.60;;;;;;5052955;28;20976;-85
2022/04/13 09:50:01;;;;;;;1.23;0.50;;;15.40;88.50;;;;;;5049837;28;20462;-86
2022/04/13 09:52:33;;;;;;;0.30;0.20;;;15.50;86.40;;;;;;5048592;28;20937;-86
2022/04/13 09:55:05;;;;;;;1.00;0.30;;;15.60;86.20;;;;;;5048963;28;20481;-86
2022/04/13 09:57:34;;;;;;;1.17;0.77;;;15.40;85.60;;;;;;5066235;28;21001;-88
2022/04/13 10:00:03;;;;;;;0.40;0.30;;;15.30;85.00;;;;;;5048403;28;20461;-86
2022/04/13 10:02:41;;;;;;;1.27;0.90;;;15.30;84.30;;;;;;5055239;28;20453;-86
2022/04/13 10:05:09;;;;;;;0.60;0.60;;;15.50;88.00;;;;;;5066162;28;20501;-86
2022/04/13 10:07:37;;;;;;;0.50;0.50;;;15.60;86.80;;;;;;5058159;28;20504;-85
2022/04/13 10:10:05;;;;;;;0.40;0.40;;;15.80;86.30;;;;;;5064841;28;20852;-86
2022/04/13 10:12:49;;;;;;;0.40;0.30;;;15.50;85.90;;;;;;5064667;28;20459;-87
2022/04/13 10:15:17;;;;;;;0.30;0.30;;;15.80;85.60;;;;;;5060973;28;20896;-85
2022/04/13 10:17:44;;;;;;;3.30;1.90;;;15.80;83.50;;;;;;5053742;28;20470;-85
2022/04/13 10:20:11;;;;;;;0.40;0.30;;;15.60;84.40;;;;;;5048740;28;20529;-86
2022/04/13 10:22:59;;;;;;;0.40;0.40;;;15.90;86.20;;;;;;5049036;28;20508;-86
2022/04/13 10:25:28;;;;;;;0.97;0.97;;;16.20;86.20;;;;;;5049009;28;20454;-86
2022/04/13 10:27:57;;;;;;;0.77;0.70;;;16.20;85.80;;;;;;5057177;28;20484;-85
2022/04/13 10:30:29;;;;;;;0.40;0.30;;;16.40;85.60;;;;;;5059173;28;20468;-85
2022/04/13 10:33:01;;;;;;;1.27;0.50;;;16.60;84.10;;;;;;5051722;28;20460;-85
2022/04/13 10:35:29;;;;;;;0.43;0.43;;;16.80;85.90;;;;;;5062296;28;20470;-83
2022/04/13 10:37:56;;;;;;;0.47;0.40;;;16.90;86.30;;;;;;5053768;28;20475;-86
2022/04/13 10:40:24;;;;;;;0.40;0.33;;;17.00;85.70;;;;;;5056719;28;20470;-83
2022/04/13 10:42:53;;;;;;;0.80;0.80;;;17.00;80.70;;;;;;5059207;28;20465;-84
2022/04/13 10:45:23;;;;;;;3.60;0.67;;;17.10;84.10;;;;;;5046731;28;20935;-83
2022/04/13 10:47:56;;;;;;;0.40;0.40;;;16.90;84.50;;;;;;5046923;28;20476;-84
2022/04/13 10:50:32;;;;;;;0.40;0.30;;;17.00;86.20;;;;;;5062272;28;20452;-83
2022/04/13 10:53:01;;;;;;;0.40;0.40;;;17.30;85.10;;;;;;5062241;28;20923;-82
2022/04/13 10:55:30;;;;;;;0.60;0.60;;;17.60;82.40;;;;;;5060600;28;20469;-84
2022/04/13 10:58:04;;;;;;;7.90;1.10;;;17.80;79.80;;;;;;5059481;28;20472;-83
2022/04/13 11:00:36;;;;;;;1.17;1.03;;;17.60;81.50;;;;;;5056192;28;20464;-84
2022/04/13 11:03:04;;;;;;;0.40;0.30;;;17.60;82.30;;;;;;5047976;28;20913;-84
2022/04/13 11:05:32;;;;;;;0.87;0.70;;;17.50;82.80;;;;;;5043833;28;20939;-85
2022/04/13 11:08:09;;;;;;;0.80;0.77;;;17.70;82.10;;;;;;5066309;28;20540;-84
2022/04/13 11:10:38;;;;;;;0.87;0.67;;;18.00;81.50;;;;;;5034275;28;20468;-85
2022/04/13 11:13:05;;;;;;;0.40;0.40;;;17.90;78.60;;;;;;5049121;28;20819;-87
2022/04/13 11:15:42;;;;;;;3.17;0.80;;;17.60;75.30;;;;;;5061376;28;20475;-85
2022/04/13 11:18:11;;;;;;;3.03;1.53;;;17.40;80.70;;;;;;5055264;28;21002;-85
2022/04/13 11:20:59;;;;;;;0.37;0.27;;;17.80;79.80;;;;;;5046319;28;20495;-83
2022/04/13 11:23:47;;;;;;;5.70;0.67;;;17.90;81.10;;;;;;5059945;28;20461;-84
2022/04/13 11:26:15;;;;;;;0.77;0.77;;;18.20;81.40;;;;;;5049370;28;20485;-86
2022/04/13 11:28:42;;;;;;;0.93;0.47;;;18.20;77.40;;;;;;5042855;28;20468;-87
2022/04/13 11:31:12;;;;;;;0.50;0.40;;;18.10;77.30;;;;;;5049449;28;20492;-84
2022/04/13 11:33:48;;;;;;;0.60;0.60;;;18.30;78.10;;;;;;5058686;28;20448;-87
2022/04/13 11:36:16;;;;;;;1.90;1.80;;;18.60;77.40;;;;;;5049532;28;20856;-86
2022/04/13 11:38:51;;;;;;;0.90;0.40;;;18.80;78.30;;;;;;5064422;28;20456;-84
2022/04/13 11:41:18;;;;;;;0.60;0.40;;;18.60;76.90;;;;;;5044951;28;20457;-85
2022/04/13 11:43:46;;;;;;;0.60;0.60;;;19.00;78.00;;;;;;5043705;28;20455;-85
2022/04/13 11:46:37;;;;;;;0.53;0.30;;;19.10;78.30;;;;;;5055219;28;20878;-85
2022/04/13 11:49:05;;;;;;;0.80;0.50;;;18.80;72.90;;;;;;5046179;28;20561;-86
2022/04/13 11:51:32;;;;;;;1.70;0.57;;;18.40;73.20;;;;;;5047070;28;20489;-87
2022/04/13 11:54:07;;;;;;;0.50;0.43;;;18.60;76.70;;;;;;5049307;28;20464;-85
2022/04/13 11:56:36;;;;;;;1.20;0.70;;;19.10;75.50;;;;;;5053373;28;20455;-85
2022/04/13 11:59:04;;;;;;;2.37;0.57;;;19.30;77.50;;;;;;5048173;28;20904;-88
2022/04/13 12:01:33;;;;;;;0.50;0.50;;;19.10;74.20;;;;;;5045391;28;20457;-84
2022/04/13 12:04:05;;;;;;;0.40;0.30;;;19.10;73.50;;;;;;5050344;28;20531;-84
2022/04/13 12:06:33;;;;;;;0.80;0.80;;;18.90;74.50;;;;;;5048531;28;20823;-88
2022/04/13 12:09:02;;;;;;;0.43;0.40;;;19.00;78.30;;;;;;5062236;28;20455;-87
2022/04/13 12:11:43;;;;;;;0.80;0.60;;;19.50;76.80;;;;;;5042900;28;20513;-87
2022/04/13 12:14:11;;;;;;;1.07;0.97;;;19.70;74.40;;;;;;5059473;28;20551;-84
2022/04/13 12:16:39;;;;;;;0.40;0.30;;;19.70;73.70;;;;;;5053483;28;20453;-84
2022/04/13 12:19:10;;;;;;;0.97;0.60;;;19.60;72.30;;;;;;5067563;28;20441;-87
2022/04/13 12:21:39;;;;;;;0.50;0.50;;;19.30;72.50;;;;;;5057729;28;20943;-85
2022/04/13 12:24:08;;;;;;;0.60;0.40;;;19.40;74.90;;;;;;5047588;28;22011;-85
2022/04/13 12:26:36;;;;;;;2.00;0.50;;;19.50;74.10;;;;;;5065112;28;20829;-85
2022/04/13 12:29:12;;;;;;;1.43;1.27;;;19.50;76.30;;;;;;5053995;28;20464;-86
2022/04/13 12:31:45;;;;;;;3.60;0.80;;;19.50;73.30;;;;;;5048368;28;21155;-88
2022/04/13 12:34:17;;;;;;;0.80;0.40;;;19.30;70.80;;;;;;5049711;28;21357;-85
2022/04/13 12:36:49;;;;;;;0.70;0.67;;;19.40;74.50;;;;;;5060240;28;20439;-85
2022/04/13 12:39:16;;;;;;;1.37;1.03;;;19.80;75.00;;;;;;5062098;28;20483;-88
2022/04/13 12:41:43;;;;;;;2.20;0.60;;;19.90;74.50;;;;;;5049785;28;20465;-86
2022/04/13 12:44:10;;;;;;;0.30;0.30;;;20.00;72.50;;;;;;5064671;28;20465;-84
2022/04/13 12:46:37;;;;;;;1.00;0.60;;;20.20;70.10;;;;;;5060837;28;20480;-85
2022/04/13 12:49:06;;;;;;;0.50;0.50;;;20.30;72.80;;;;;;5060323;28;20900;-87
2022/04/13 12:51:36;;;;;;;1.03;1.03;;;20.30;70.40;;;;;;5057852;28;20462;-88
2022/04/13 12:54:05;;;;;;;0.40;0.30;;;20.30;71.60;;;;;;5050119;28;20470;-86
2022/04/13 12:56:34;;;;;;;0.63;0.50;;;20.20;71.10;;;;;;5064935;28;20465;-85
2022/04/13 12:59:02;;;;;;;0.50;0.40;;;20.20;72.70;;;;;;5069851;28;20476;-85